createdAt,value
2019-03-16T00:00:31.867Z,99806.92
2019-03-16T00:03:35.665Z,99812.52
2019-03-16T00:06:39.505Z,99812.92
2019-03-16T00:09:43.298Z,99822.44
2019-03-16T00:12:47.194Z,99829.47
2019-03-16T00:15:51.034Z,99851.56
2019-03-16T00:18:54.971Z,99832.19
2019-03-16T00:21:58.813Z,99840.78
2019-03-16T00:25:02.656Z,99830.44
2019-03-16T00:28:06.560Z,99835.65
2019-03-16T00:31:10.468Z,99858.73
2019-03-16T00:34:14.259Z,99859.47
2019-03-16T00:37:18.094Z,99859.64
2019-03-16T00:40:22.129Z,99862.22
2019-03-16T00:43:25.899Z,99869.40
2019-03-16T00:46:29.753Z,99889.14
2019-03-16T00:49:33.593Z,99883.20
2019-03-16T00:52:37.424Z,99888.79
2019-03-16T00:55:41.226Z,99890.70
2019-03-16T00:58:45.088Z,99896.79
2019-03-16T01:01:48.881Z,99888.67
2019-03-16T01:04:52.730Z,99884.28
2019-03-16T01:07:56.568Z,99891.11
2019-03-16T01:11:00.460Z,99894.21
2019-03-16T01:14:04.551Z,99910.17
2019-03-16T01:17:08.351Z,99943.95
2019-03-16T01:20:12.426Z,99926.77
2019-03-16T01:23:17.799Z,99916.84
2019-03-16T01:26:21.989Z,99928.54
2019-03-16T01:29:25.815Z,99930.97
2019-03-16T01:32:39.963Z,99932.08
2019-03-16T01:35:35.237Z,99937.15
2019-03-16T01:38:39.154Z,99934.36
2019-03-16T01:41:42.986Z,99935.41
2019-03-16T01:44:46.943Z,99945.30
2019-03-16T01:47:50.791Z,99947.36
2019-03-16T01:50:54.615Z,99951.17
2019-03-16T01:53:58.431Z,99957.75
2019-03-16T01:57:02.259Z,99949.25
2019-03-16T02:00:06.570Z,99947.52
2019-03-16T02:03:10.505Z,99954.78
2019-03-16T02:06:14.394Z,99958.23
2019-03-16T02:09:18.262Z,99965.89
2019-03-16T02:12:22.095Z,99973.20
2019-03-16T02:15:26.009Z,99970.47
2019-03-16T02:18:29.835Z,99966.95
2019-03-16T02:21:34.023Z,99976.17
2019-03-16T02:24:37.832Z,99989.08
2019-03-16T02:27:41.729Z,99983.64
2019-03-16T02:30:45.567Z,99991.20
2019-03-16T02:33:49.391Z,99994.80
2019-03-16T02:36:54.000Z,99989.89
2019-03-16T02:39:57.822Z,99992.68
2019-03-16T02:43:01.724Z,100011.69
2019-03-16T02:46:05.616Z,100003.66
2019-03-16T02:49:09.497Z,100007.74
2019-03-16T02:52:13.364Z,100024.79
2019-03-16T02:55:17.177Z,100017.08
2019-03-16T02:58:21.025Z,100015.98
2019-03-16T03:01:24.938Z,100020.52
2019-03-16T03:04:28.890Z,100032.52
2019-03-16T03:07:32.741Z,100036.50
2019-03-16T03:10:36.588Z,100029.16
2019-03-16T03:13:40.424Z,100038.72
2019-03-16T03:16:44.361Z,100029.57
2019-03-16T03:19:48.158Z,100037.72
2019-03-16T03:22:52.058Z,100040.53
2019-03-16T03:25:55.859Z,100044.22
2019-03-16T03:28:59.728Z,100041.26
2019-03-16T03:32:03.525Z,100038.64
2019-03-16T03:35:07.601Z,100028.91
2019-03-16T03:38:11.521Z,100040.50
2019-03-16T03:41:15.370Z,100049.75
2019-03-16T03:44:19.317Z,100051.98
2019-03-16T03:47:23.138Z,100054.09
2019-03-16T03:50:26.962Z,100048.16
2019-03-16T03:53:30.800Z,100052.88
2019-03-16T03:56:34.710Z,100069.83
2019-03-16T03:59:38.680Z,100055.84
2019-03-16T04:02:42.675Z,100060.55
2019-03-16T04:05:46.472Z,100059.95
2019-03-16T04:08:50.467Z,100055.36
2019-03-16T04:11:54.289Z,100057.92
2019-03-16T04:14:58.124Z,100047.78
2019-03-16T04:18:02.050Z,100054.27
2019-03-16T04:21:06.008Z,100065.48
2019-03-16T04:24:09.845Z,100071.95
2019-03-16T04:27:16.413Z,100068.02
2019-03-16T04:30:19.214Z,100054.20
2019-03-16T04:33:23.075Z,100073.27
2019-03-16T04:36:26.931Z,100082.34
2019-03-16T04:39:30.851Z,100083.36
2019-03-16T04:42:34.660Z,100077.83
2019-03-16T04:45:38.495Z,100079.70
2019-03-16T04:48:42.380Z,100086.00
2019-03-16T04:51:46.201Z,100081.44
2019-03-16T04:54:50.023Z,100093.91
2019-03-16T04:57:53.835Z,100092.30
2019-03-16T05:00:57.681Z,100095.63
2019-03-16T05:04:01.513Z,100096.55
2019-03-16T05:07:05.427Z,100105.23
2019-03-16T05:10:09.451Z,100115.70
2019-03-16T05:13:13.262Z,100108.88
2019-03-16T05:16:17.071Z,100111.56
2019-03-16T05:19:20.876Z,100113.90
2019-03-16T05:22:24.672Z,100120.34
2019-03-16T05:25:28.474Z,100123.22
2019-03-16T05:28:32.304Z,100127.91
2019-03-16T05:31:36.132Z,100137.14
2019-03-16T05:34:39.958Z,100127.17
2019-03-16T05:37:43.870Z,100129.30
2019-03-16T05:40:47.674Z,100141.42
2019-03-16T05:43:51.459Z,100145.86
2019-03-16T05:46:55.332Z,100143.11
2019-03-16T05:49:59.182Z,100139.59
2019-03-16T05:53:03.002Z,100153.58
2019-03-16T05:56:06.987Z,100142.73
2019-03-16T05:59:10.810Z,100153.11
2019-03-16T06:02:14.643Z,100148.58
2019-03-16T06:05:18.447Z,100153.59
2019-03-16T06:08:22.258Z,100157.30
2019-03-16T06:11:26.166Z,100150.95
2019-03-16T06:14:30.013Z,100151.61
2019-03-16T06:17:33.898Z,100158.13
2019-03-16T06:20:37.694Z,100155.33
2019-03-16T06:23:41.497Z,100162.48
2019-03-16T06:26:45.319Z,100162.97
2019-03-16T06:29:49.244Z,100162.91
2019-03-16T06:32:53.134Z,100170.09
2019-03-16T06:35:56.938Z,100171.95
2019-03-16T06:39:00.751Z,100169.11
2019-03-16T06:42:04.621Z,100172.45
2019-03-16T06:45:08.703Z,100191.67
2019-03-16T06:48:12.549Z,100188.88
2019-03-16T06:51:16.349Z,100198.72
2019-03-16T06:54:20.172Z,100196.86
2019-03-16T06:57:24.063Z,100195.03
2019-03-16T07:00:27.874Z,100202.64
2019-03-16T07:03:31.669Z,100203.51
2019-03-16T07:06:35.477Z,100207.39
2019-03-16T07:09:39.294Z,100206.17
2019-03-16T07:12:43.109Z,100199.33
2019-03-16T07:15:46.929Z,100204.09
2019-03-16T07:18:58.711Z,100198.98
2019-03-16T07:21:56.348Z,100201.95
2019-03-16T07:25:00.460Z,100203.11
2019-03-16T07:28:04.431Z,100190.78
2019-03-16T07:31:08.248Z,100183.83
2019-03-16T07:34:12.038Z,100188.67
2019-03-16T07:37:15.860Z,100185.38
2019-03-16T07:40:19.717Z,100183.80
2019-03-16T07:43:23.532Z,100183.73
2019-03-16T07:46:27.369Z,100172.79
2019-03-16T07:49:31.164Z,100181.75
2019-03-16T07:52:34.969Z,100175.87
2019-03-16T07:55:42.016Z,100171.74
2019-03-16T07:58:44.318Z,100173.64
2019-03-16T08:01:48.195Z,100191.31
2019-03-16T08:04:51.996Z,100184.72
2019-03-16T08:07:55.796Z,100188.67
2019-03-16T08:10:59.599Z,100185.16
2019-03-16T08:14:03.395Z,100177.83
2019-03-16T08:17:07.244Z,100177.99
2019-03-16T08:20:11.311Z,100176.84
2019-03-16T08:23:15.184Z,100170.20
2019-03-16T08:26:18.984Z,100160.59
2019-03-16T08:29:22.796Z,100154.59
2019-03-16T08:32:26.616Z,100161.78
2019-03-16T08:35:30.423Z,100172.91
2019-03-16T08:38:34.239Z,100178.78
2019-03-16T08:41:45.218Z,100170.23
2019-03-16T08:44:49.010Z,100174.04
2019-03-16T08:47:52.851Z,100182.41
2019-03-16T08:50:56.681Z,100190.48
2019-03-16T08:54:00.488Z,100189.87
2019-03-16T08:57:04.375Z,100192.14
2019-03-16T09:00:08.868Z,100190.70
2019-03-16T09:03:12.676Z,100195.08
2019-03-16T09:06:16.529Z,100197.63
2019-03-16T09:09:20.478Z,100186.41
2019-03-16T09:12:24.317Z,100189.45
2019-03-16T09:15:30.574Z,100194.97
2019-03-16T09:18:34.925Z,100180.13
2019-03-16T09:21:38.821Z,100196.58
2019-03-16T09:24:42.648Z,100196.67
2019-03-16T09:27:51.286Z,100185.83
2019-03-16T09:30:56.632Z,100189.98
2019-03-16T09:34:00.715Z,100187.75
2019-03-16T09:37:05.402Z,100178.41
2019-03-16T09:40:09.418Z,100173.38
2019-03-16T09:43:13.297Z,100176.27
2019-03-16T09:46:17.253Z,100168.45
2019-03-16T09:49:21.110Z,100181.05
2019-03-16T09:52:25.069Z,100183.88
2019-03-16T09:55:29.243Z,100182.61
2019-03-16T09:58:33.334Z,100185.86
2019-03-16T10:01:37.179Z,100184.54
2019-03-16T10:04:43.274Z,100169.48
2019-03-16T10:07:47.259Z,100167.16
2019-03-16T10:10:51.371Z,100165.13
2019-03-16T10:13:55.273Z,100160.03
2019-03-16T10:16:59.221Z,100164.58
2019-03-16T10:20:03.038Z,100147.10
2019-03-16T10:23:06.956Z,100154.94
2019-03-16T10:26:10.941Z,100162.55
2019-03-16T10:29:14.830Z,100148.92
2019-03-16T10:32:19.131Z,100142.33
2019-03-16T10:35:23.029Z,100141.00
2019-03-16T10:38:26.865Z,100147.02
2019-03-16T10:41:30.725Z,100142.06
2019-03-16T10:44:34.566Z,100135.21
2019-03-16T10:47:38.598Z,100142.53
2019-03-16T10:50:42.451Z,100149.64
2019-03-16T10:53:46.419Z,100165.29
2019-03-16T10:56:50.463Z,100160.97
2019-03-16T10:59:54.361Z,100153.40
2019-03-16T11:02:58.157Z,100158.34
2019-03-16T11:06:02.047Z,100144.21
2019-03-16T11:09:07.243Z,100129.72
2019-03-16T11:12:11.180Z,100122.94
2019-03-16T11:15:15.228Z,100127.22
2019-03-16T11:18:19.017Z,100130.86
2019-03-16T11:21:22.820Z,100122.65
2019-03-16T11:24:26.695Z,100125.98
2019-03-16T11:27:33.518Z,100117.75
2019-03-16T11:30:45.577Z,100112.22
2019-03-16T11:33:49.376Z,100109.94
2019-03-16T11:36:53.251Z,100097.09
2019-03-16T11:39:57.137Z,100105.75
2019-03-16T11:43:09.404Z,100104.64
2019-03-16T11:46:18.076Z,100100.89
2019-03-16T11:49:27.936Z,100098.64
2019-03-16T11:52:38.938Z,100085.73
2019-03-16T11:55:48.068Z,100086.62
2019-03-16T11:58:51.922Z,100089.13
2019-03-16T12:02:04.874Z,100078.30
2019-03-16T12:05:01.624Z,100065.82
2019-03-16T12:08:05.524Z,100062.48
2019-03-16T12:11:12.455Z,100056.52
2019-03-16T12:14:16.272Z,100045.56
2019-03-16T12:17:20.704Z,100043.00
2019-03-16T12:20:30.187Z,100031.08
2019-03-16T12:23:35.145Z,100029.71
2019-03-16T12:26:40.585Z,100022.98
2019-03-16T12:29:47.784Z,100018.88
2019-03-16T12:32:56.989Z,100012.61
2019-03-16T12:36:13.490Z,100004.30
2019-03-16T12:39:47.346Z,100004.59
2019-03-16T12:50:06.159Z,99996.08
2019-03-16T13:07:02.686Z,99957.99
2019-03-16T13:22:31.484Z,99929.28
2019-03-16T13:25:35.691Z,99917.16
2019-03-16T13:28:40.887Z,99911.83
2019-03-16T13:31:50.818Z,99902.36
2019-03-16T13:34:54.822Z,99901.05
2019-03-16T13:37:58.800Z,99891.27
2019-03-16T13:41:03.114Z,99879.83
2019-03-16T13:44:07.496Z,99869.47
2019-03-16T13:47:11.605Z,99870.45
2019-03-16T13:50:18.093Z,99861.32
2019-03-16T13:53:23.533Z,99857.30
2019-03-16T13:56:30.586Z,99847.87
2019-03-16T13:59:47.244Z,99842.30
2019-03-16T14:02:56.235Z,99833.76
2019-03-16T14:06:04.041Z,99814.34
2019-03-16T14:09:20.228Z,99817.33
2019-03-16T14:12:30.554Z,99798.20
2019-03-16T14:15:38.058Z,99787.15
2019-03-16T14:19:59.365Z,99781.39
2019-03-16T14:30:41.350Z,99755.91
2019-03-16T14:33:59.767Z,99742.13
2019-03-16T14:37:28.545Z,99738.50
2019-03-16T14:40:36.295Z,99721.58
2019-03-16T14:44:05.870Z,99725.27
2019-03-16T14:47:50.568Z,99715.58
2019-03-16T14:50:57.839Z,99696.41
2019-03-16T14:55:01.072Z,99698.56
2019-03-16T14:58:31.600Z,99687.03
2019-03-16T15:01:44.103Z,99676.14
2019-03-16T15:09:41.022Z,99676.53
2019-03-16T15:12:59.768Z,99673.50
2019-03-16T15:16:50.239Z,99652.77
2019-03-16T15:31:22.697Z,99615.73
2019-03-16T15:34:50.624Z,99621.75
2019-03-16T15:41:51.982Z,99593.71
2019-03-16T15:53:40.856Z,99560.11
2019-03-16T15:57:36.672Z,99555.95
2019-03-16T16:04:59.553Z,99547.02
2019-03-16T16:08:33.780Z,99539.71
2019-03-16T16:12:22.959Z,99536.16
2019-03-16T16:20:19.657Z,99508.77
2019-03-16T16:28:01.732Z,99491.61
2019-03-16T16:31:57.359Z,99489.58
2019-03-16T16:35:42.924Z,99475.59
2019-03-16T16:38:51.502Z,99473.63
2019-03-16T16:46:00.506Z,99475.25
2019-03-16T16:46:26.527Z,99464.89
2019-03-16T16:50:53.852Z,99454.80
2019-03-16T16:54:40.344Z,99448.06
2019-03-16T17:04:33.937Z,99453.98
2019-03-16T17:07:52.739Z,99439.22
2019-03-16T17:16:21.731Z,99436.17
2019-03-16T17:29:00.025Z,99432.12
2019-03-16T17:45:52.873Z,99422.02
2019-03-16T18:12:28.561Z,99413.77
2019-03-16T20:34:18.515Z,99308.77
2019-03-16T20:46:29.690Z,99298.33
2019-03-16T21:03:16.024Z,99295.70
2019-03-16T21:10:34.569Z,99281.53
2019-03-16T21:13:38.412Z,99275.59
2019-03-16T21:16:42.584Z,99249.75
2019-03-16T21:19:46.478Z,99252.09
2019-03-16T21:23:00.672Z,99264.73
2019-03-16T21:26:19.209Z,99260.77
2019-03-16T21:29:26.242Z,99245.69
2019-03-16T21:32:49.658Z,99237.45
2019-03-16T21:36:20.997Z,99232.84
2019-03-16T21:39:32.568Z,99212.80
2019-03-16T21:46:57.681Z,99224.08
2019-03-16T21:50:33.882Z,99207.17
2019-03-16T21:53:50.177Z,99218.66
2019-03-16T21:56:58.555Z,99205.06
2019-03-16T22:00:22.779Z,99216.92
2019-03-16T22:03:57.415Z,99189.99
2019-03-16T22:14:38.701Z,99166.44
2019-03-16T22:17:43.217Z,99184.98
2019-03-16T22:34:57.541Z,99164.02
2019-03-16T22:39:00.657Z,99157.96
2019-03-16T22:42:30.944Z,99153.06
2019-03-16T22:46:04.001Z,99140.83
2019-03-16T22:49:27.201Z,99150.41
2019-03-16T22:52:31.891Z,99133.59
2019-03-16T22:55:50.201Z,99138.34
2019-03-16T22:59:03.444Z,99124.87
2019-03-16T23:02:08.793Z,99188.61
2019-03-16T23:05:15.684Z,99129.40
2019-03-16T23:08:22.370Z,99124.39
2019-03-16T23:11:30.756Z,99124.09
2019-03-16T23:14:35.169Z,99122.77
2019-03-16T23:17:40.372Z,99116.22
2019-03-16T23:20:55.658Z,99104.23
2019-03-16T23:24:00.055Z,99111.15
2019-03-16T23:27:05.151Z,99099.00
2019-03-16T23:30:15.145Z,99096.34
2019-03-16T23:33:21.325Z,99098.83
2019-03-16T23:36:25.445Z,99098.38
2019-03-16T23:39:39.980Z,99084.27
2019-03-16T23:42:46.707Z,99070.48
2019-03-16T23:45:53.157Z,99083.33
2019-03-16T23:48:57.702Z,99089.41
2019-03-16T23:52:04.665Z,99062.63
2019-03-16T23:55:14.290Z,99066.67
2019-03-16T23:58:19.667Z,99062.15
